createdAt,value
2023-02-04T00:01:00.522Z,8.76
2023-02-04T00:06:03.384Z,8.31
2023-02-04T00:11:06.156Z,8.23
2023-02-04T00:16:08.835Z,8.35
2023-02-04T00:21:12.000Z,8.18
2023-02-04T00:26:14.511Z,8.35
2023-02-04T00:31:17.190Z,8.61
2023-02-04T00:36:19.693Z,8.57
2023-02-04T00:41:22.174Z,8.78
2023-02-04T00:46:24.759Z,9.16
2023-02-04T00:51:26.825Z,9.34
2023-02-04T00:56:28.847Z,9.30
2023-02-04T01:01:31.122Z,9.31
2023-02-04T01:06:33.415Z,9.36
2023-02-04T01:11:36.585Z,9.41
2023-02-04T01:16:38.728Z,9.46
2023-02-04T01:21:41.150Z,9.29
2023-02-04T01:26:43.620Z,9.28
2023-02-04T01:31:46.292Z,9.68
2023-02-04T01:36:48.671Z,9.96
2023-02-04T01:41:52.244Z,9.66
2023-02-04T01:46:55.687Z,9.53
2023-02-04T01:51:58.274Z,9.60
2023-02-04T01:57:00.769Z,8.98
2023-02-04T02:02:23.485Z,8.53
2023-02-04T02:07:26.014Z,8.32
2023-02-04T02:12:28.444Z,8.19
2023-02-04T02:17:31.130Z,8.44
2023-02-04T02:22:36.342Z,8.71
2023-02-04T02:27:39.118Z,8.85
2023-02-04T02:32:42.173Z,8.95
2023-02-04T02:37:45.058Z,8.52
2023-02-04T02:42:51.547Z,8.97
2023-02-04T02:47:56.276Z,9.16
2023-02-04T02:52:59.486Z,8.87
2023-02-04T02:58:02.225Z,8.65
2023-02-04T03:03:36.352Z,8.56
2023-02-04T03:08:40.475Z,8.42
2023-02-04T03:13:43.574Z,8.53
2023-02-04T03:18:48.485Z,8.65
2023-02-04T03:23:51.540Z,8.88
2023-02-04T03:28:55.137Z,8.87
2023-02-04T03:33:57.543Z,8.90
2023-02-04T03:38:59.995Z,8.88
2023-02-04T03:44:02.391Z,8.86
2023-02-04T03:49:04.750Z,8.66
2023-02-04T03:54:07.161Z,8.74
2023-02-04T03:59:09.703Z,8.40
2023-02-04T04:04:12.825Z,8.13
2023-02-04T04:09:15.306Z,8.24
2023-02-04T04:14:17.727Z,8.19
2023-02-04T04:19:20.569Z,8.19
2023-02-04T04:24:22.960Z,8.38
2023-02-04T04:29:25.450Z,8.20
2023-02-04T04:34:27.826Z,8.30
2023-02-04T04:39:30.235Z,8.05
2023-02-04T04:44:32.648Z,7.63
2023-02-04T04:49:35.000Z,7.86
2023-02-04T04:54:37.491Z,8.26
2023-02-04T04:59:39.901Z,8.19
2023-02-04T05:04:43.029Z,7.98
2023-02-04T05:09:45.610Z,8.24
2023-02-04T05:14:48.048Z,8.36
2023-02-04T05:19:50.464Z,8.19
2023-02-04T05:24:53.051Z,8.24
2023-02-04T05:29:55.508Z,8.28
2023-02-04T05:34:57.956Z,8.30
2023-02-04T05:40:00.439Z,8.25
2023-02-04T05:45:03.060Z,8.15
2023-02-04T05:50:06.486Z,7.62
2023-02-04T05:55:11.400Z,7.39
2023-02-04T06:00:14.788Z,7.65
2023-02-04T06:05:18.274Z,7.74
2023-02-04T06:10:21.314Z,7.99
2023-02-04T06:15:23.976Z,8.21
2023-02-04T06:20:26.411Z,8.24
2023-02-04T06:25:29.286Z,8.34
2023-02-04T06:30:32.424Z,8.38
2023-02-04T06:35:35.000Z,8.39
2023-02-04T06:40:38.400Z,8.27
2023-02-04T06:45:40.841Z,7.67
2023-02-04T06:50:43.729Z,7.68
2023-02-04T06:55:46.361Z,7.95
2023-02-04T07:00:48.877Z,8.10
2023-02-04T07:05:53.033Z,8.21
2023-02-04T07:10:55.089Z,8.33
2023-02-04T07:15:57.168Z,8.43
2023-02-04T07:20:59.558Z,8.42
2023-02-04T07:26:01.973Z,8.30
2023-02-04T07:31:04.013Z,8.43
2023-02-04T07:36:06.527Z,8.42
2023-02-04T07:41:08.604Z,8.33
2023-02-04T07:46:10.853Z,8.33
2023-02-04T07:51:13.602Z,8.41
2023-02-04T07:56:15.827Z,8.45
2023-02-04T08:01:18.163Z,8.55
2023-02-04T08:06:20.271Z,8.59
2023-02-04T08:11:22.555Z,8.61
2023-02-04T08:16:24.646Z,8.61
2023-02-04T08:21:26.780Z,8.71
2023-02-04T08:26:28.768Z,8.76
2023-02-04T08:31:31.280Z,8.94
2023-02-04T08:36:34.257Z,8.97
2023-02-04T08:41:36.678Z,9.12
2023-02-04T08:46:39.162Z,9.26
2023-02-04T08:51:42.094Z,9.37
2023-02-04T08:56:45.045Z,9.10
2023-02-04T09:01:51.105Z,9.48
2023-02-04T09:06:53.598Z,9.92
2023-02-04T09:11:56.364Z,9.71
2023-02-04T09:16:58.733Z,9.90
2023-02-04T09:22:00.715Z,10.18
2023-02-04T09:27:03.164Z,10.15
2023-02-04T09:32:05.858Z,9.81
2023-02-04T09:37:08.670Z,10.23
2023-02-04T09:42:15.189Z,9.88
2023-02-04T09:47:20.914Z,9.53
2023-02-04T09:52:24.759Z,9.94
2023-02-04T09:57:28.576Z,10.06
2023-02-04T10:02:31.850Z,10.36
2023-02-04T10:07:35.365Z,11.13
2023-02-04T10:12:39.835Z,12.80
2023-02-04T10:17:43.345Z,13.45
2023-02-04T10:22:51.321Z,11.82
2023-02-04T10:27:59.306Z,10.93
2023-02-04T10:33:14.590Z,10.57
2023-02-04T10:38:17.261Z,10.52
2023-02-04T10:43:22.983Z,10.58
2023-02-04T10:48:25.828Z,10.72
2023-02-04T10:53:46.864Z,11.04
2023-02-04T10:58:50.318Z,12.19
2023-02-04T11:03:54.027Z,12.99
2023-02-04T11:08:59.186Z,12.08
2023-02-04T11:14:03.369Z,11.51
2023-02-04T11:19:11.755Z,10.88
2023-02-04T11:24:14.463Z,10.67
2023-02-04T11:29:17.032Z,10.51
2023-02-04T11:34:19.611Z,10.36
2023-02-04T11:39:22.340Z,10.36
2023-02-04T11:44:25.328Z,10.40
2023-02-04T11:49:28.385Z,10.36
2023-02-04T11:54:30.968Z,10.48
2023-02-04T11:59:33.601Z,10.70
2023-02-04T12:04:36.056Z,10.98
2023-02-04T12:09:49.495Z,11.17
2023-02-04T12:15:02.115Z,12.22
2023-02-04T12:20:04.770Z,13.04
2023-02-04T12:25:07.704Z,12.90
2023-02-04T12:30:11.319Z,12.65
2023-02-04T12:35:14.212Z,12.79
2023-02-04T12:40:19.126Z,12.10
2023-02-04T12:45:21.587Z,11.73
2023-02-04T12:50:24.542Z,11.60
2023-02-04T12:55:28.705Z,11.41
2023-02-04T13:00:31.625Z,11.24
2023-02-04T13:05:36.139Z,10.86
2023-02-04T13:10:38.521Z,10.93
2023-02-04T13:15:41.003Z,10.75
2023-02-04T13:20:43.730Z,10.84
2023-02-04T13:25:46.179Z,11.18
2023-02-04T13:30:48.597Z,11.38
2023-02-04T13:35:50.983Z,11.27
2023-02-04T13:40:53.617Z,11.83
2023-02-04T13:45:57.833Z,12.06
2023-02-04T13:51:00.369Z,12.32
2023-02-04T13:56:03.128Z,12.12
2023-02-04T14:01:05.983Z,11.63
2023-02-04T14:06:08.465Z,11.30
2023-02-04T14:11:11.290Z,12.10
2023-02-04T14:16:14.295Z,12.65
2023-02-04T14:21:16.894Z,13.17
2023-02-04T14:26:19.458Z,13.39
2023-02-04T14:31:22.336Z,12.96
2023-02-04T14:36:25.039Z,13.05
2023-02-04T14:41:30.131Z,13.18
2023-02-04T14:46:32.570Z,13.01
2023-02-04T14:51:35.749Z,12.67
2023-02-04T14:56:38.432Z,12.54
2023-02-04T15:01:42.564Z,11.86
2023-02-04T15:06:46.139Z,12.00
2023-02-04T15:11:48.585Z,11.83
2023-02-04T15:16:51.254Z,12.40
2023-02-04T15:21:54.131Z,12.30
2023-02-04T15:26:56.770Z,12.15
2023-02-04T15:31:59.323Z,12.12
2023-02-04T15:37:01.861Z,12.22
2023-02-04T15:42:04.766Z,11.85
2023-02-04T15:47:07.138Z,11.88
2023-02-04T15:52:19.467Z,11.97
2023-02-04T15:57:26.599Z,11.77
2023-02-04T16:02:29.276Z,11.83
2023-02-04T16:07:32.001Z,11.74
2023-02-04T16:12:34.660Z,11.47
2023-02-04T16:17:37.715Z,11.62
2023-02-04T16:22:40.132Z,11.23
2023-02-04T16:27:42.721Z,11.28
2023-02-04T16:32:45.308Z,11.14
2023-02-04T16:37:47.725Z,11.48
2023-02-04T16:42:50.246Z,11.80
2023-02-04T16:47:55.855Z,11.57
2023-02-04T16:52:58.343Z,11.22
2023-02-04T16:58:00.819Z,11.35
2023-02-04T17:03:03.494Z,11.30
2023-02-04T17:08:06.618Z,11.72
2023-02-04T17:13:09.242Z,11.53
2023-02-04T17:18:11.941Z,11.04
2023-02-04T17:23:14.657Z,10.80
2023-02-04T17:28:17.544Z,10.07
2023-02-04T17:33:20.503Z,9.85
2023-02-04T17:38:23.737Z,9.53
2023-02-04T17:43:27.604Z,9.27
2023-02-04T17:48:29.986Z,9.16
2023-02-04T17:53:33.495Z,9.11
2023-02-04T17:58:38.022Z,8.99
2023-02-04T18:03:42.970Z,8.87
2023-02-04T18:08:46.205Z,8.58
2023-02-04T18:13:48.793Z,7.93
2023-02-04T18:18:54.748Z,7.74
2023-02-04T18:24:11.191Z,7.84
2023-02-04T18:29:29.188Z,7.86
2023-02-04T18:34:36.415Z,7.45
2023-02-04T18:39:38.539Z,7.05
2023-02-04T18:44:41.393Z,7.41
2023-02-04T18:49:44.051Z,7.61
2023-02-04T18:54:54.728Z,7.58
2023-02-04T19:00:13.873Z,7.56
2023-02-04T19:05:33.477Z,7.57
2023-02-04T19:10:42.524Z,7.24
2023-02-04T19:15:51.053Z,6.92
2023-02-04T19:20:53.177Z,6.96
2023-02-04T19:25:55.236Z,7.08
2023-02-04T19:31:08.640Z,7.31
2023-02-04T19:36:30.758Z,7.19
2023-02-04T19:41:53.083Z,7.22
2023-02-04T19:46:57.511Z,7.16
2023-02-04T19:51:59.911Z,7.61
2023-02-04T19:57:02.200Z,7.67
2023-02-04T20:02:07.404Z,7.72
2023-02-04T20:07:19.493Z,7.56
2023-02-04T20:12:22.086Z,7.42
2023-02-04T20:17:46.701Z,7.37
2023-02-04T20:22:51.339Z,7.31
2023-02-04T20:27:58.731Z,7.46
2023-02-04T20:33:36.701Z,7.56
2023-02-04T20:38:39.081Z,7.12
2023-02-04T20:43:42.725Z,7.06
2023-02-04T20:48:45.417Z,7.19
2023-02-04T20:53:55.430Z,7.23
2023-02-04T20:59:12.532Z,7.18
2023-02-04T21:04:34.771Z,6.92
2023-02-04T21:09:37.598Z,6.67
2023-02-04T21:14:40.139Z,6.04
2023-02-04T21:19:42.779Z,6.47
2023-02-04T21:24:45.166Z,6.78
2023-02-04T21:29:47.430Z,6.71
2023-02-04T21:34:49.712Z,6.03
2023-02-04T21:39:51.749Z,6.32
2023-02-04T21:44:54.192Z,6.23
2023-02-04T21:49:56.218Z,6.40
2023-02-04T21:54:58.243Z,6.50
2023-02-04T22:00:00.642Z,6.62
2023-02-04T22:05:07.233Z,6.92
2023-02-04T22:10:14.855Z,7.26
2023-02-04T22:15:18.441Z,7.42
2023-02-04T22:20:23.609Z,7.36
2023-02-04T22:25:25.648Z,7.34
2023-02-04T22:30:27.689Z,6.66
2023-02-04T22:35:33.389Z,6.62
2023-02-04T22:40:35.695Z,6.57
2023-02-04T22:45:37.717Z,6.76
2023-02-04T22:50:39.740Z,6.84
2023-02-04T22:55:42.133Z,6.67
2023-02-04T23:00:44.791Z,6.97
2023-02-04T23:05:48.003Z,7.38
2023-02-04T23:10:53.933Z,7.53
2023-02-04T23:16:08.496Z,7.25
2023-02-04T23:21:14.101Z,7.58
2023-02-04T23:26:16.882Z,7.80
2023-02-04T23:31:19.252Z,7.95
2023-02-04T23:36:21.482Z,7.94
2023-02-04T23:41:23.711Z,7.82
2023-02-04T23:46:25.736Z,7.85
2023-02-04T23:51:27.815Z,7.67
2023-02-04T23:56:30.248Z,7.39
